Time;durP1;ratioP1;P1;durP2;ratioP2;P2;SDS_P1;SDS_P2;PMS_P1;PMS_P2;Temp;Humidity;BMP_temperature;BMP_pressure;BME280_temperature;BME280_humidity;BME280_pressure;Samples;Min_cycle;Max_cycle;Signal;HPM_P1;HPM_P2
2022/05/29 00:02:22;;;;;;;17.03;3.70;;;11.80;99.90;;;;;;5097020;28;20043;-65
2022/05/29 00:04:47;;;;;;;15.77;4.00;;;11.80;99.90;;;;;;5115618;28;20043;-65
2022/05/29 00:07:16;;;;;;;14.33;4.27;;;11.70;99.90;;;;;;5115185;28;20498;-65
2022/05/29 00:09:47;;;;;;;18.37;3.70;;;11.70;99.90;;;;;;5115254;28;20047;-65
2022/05/29 00:12:14;;;;;;;15.83;3.33;;;11.70;99.90;;;;;;5114890;28;20690;-65
2022/05/29 00:14:41;;;;;;;13.37;3.30;;;11.60;99.90;;;;;;5115311;28;20314;-65
2022/05/29 00:17:08;;;;;;;15.00;3.87;;;11.60;99.90;;;;;;5115360;28;20273;-65
2022/05/29 00:19:34;;;;;;;14.10;3.80;;;11.50;99.90;;;;;;5097202;28;20350;-65
2022/05/29 00:22:01;;;;;;;15.43;3.87;;;11.50;99.90;;;;;;5114783;28;20298;-65
2022/05/29 00:24:27;;;;;;;12.87;3.20;;;11.40;99.90;;;;;;5114684;28;20642;-65
2022/05/29 00:26:54;;;;;;;16.20;3.10;;;11.40;99.90;;;;;;5114731;28;20327;-65
2022/05/29 00:29:21;;;;;;;15.27;3.30;;;11.30;99.90;;;;;;5096207;28;20381;-65
2022/05/29 00:31:47;;;;;;;14.30;3.40;;;11.30;99.90;;;;;;5114823;28;20280;-65
2022/05/29 00:34:13;;;;;;;14.37;3.67;;;11.30;99.90;;;;;;5114360;28;20277;-65
2022/05/29 00:36:41;;;;;;;13.83;3.37;;;11.30;99.90;;;;;;5114705;28;20051;-65
2022/05/29 00:39:07;;;;;;;19.47;3.37;;;11.20;99.90;;;;;;5114694;28;20044;-65
2022/05/29 00:41:36;;;;;;;12.30;2.57;;;11.20;99.90;;;;;;5114341;28;20277;-65
2022/05/29 00:44:20;;;;;;;18.57;2.90;;;11.20;99.90;;;;;;5114713;28;20288;-65
2022/05/29 00:46:47;;;;;;;14.03;2.70;;;11.10;99.90;;;;;;5114575;28;20282;-65
2022/05/29 00:49:14;;;;;;;15.97;3.20;;;11.10;99.90;;;;;;5114248;28;20293;-66
2022/05/29 00:51:47;;;;;;;13.60;3.10;;;11.10;99.90;;;;;;5114463;28;20278;-65
2022/05/29 00:54:15;;;;;;;11.97;2.60;;;11.10;99.90;;;;;;5114349;28;20270;-66
2022/05/29 00:56:41;;;;;;;18.37;3.17;;;11.20;99.90;;;;;;5114459;28;20277;-65
2022/05/29 00:59:15;;;;;;;9.37;2.63;;;11.20;99.90;;;;;;5114463;28;20262;-65
2022/05/29 01:01:42;;;;;;;15.75;3.25;;;11.20;99.90;;;;;;5096398;28;20625;-65
2022/05/29 01:04:09;;;;;;;12.77;2.90;;;11.10;99.90;;;;;;5114155;28;20514;-65
2022/05/29 01:06:35;;;;;;;13.67;3.27;;;11.10;99.90;;;;;;5095878;28;20286;-65
2022/05/29 01:09:02;;;;;;;12.13;2.67;;;11.10;99.90;;;;;;5114251;28;20297;-65
2022/05/29 01:11:31;;;;;;;12.80;3.60;;;11.20;99.90;;;;;;5113987;28;20083;-65
2022/05/29 01:14:18;;;;;;;13.40;3.63;;;11.10;99.90;;;;;;5114120;28;20281;-65
2022/05/29 01:16:56;;;;;;;14.50;3.27;;;11.10;99.90;;;;;;5113760;28;20282;-65
2022/05/29 01:20:01;;;;;;;12.63;3.10;;;11.10;99.90;;;;;;5113853;28;20785;-65
2022/05/29 01:22:45;;;;;;;9.98;3.25;;;11.20;99.90;;;;;;5095377;28;20343;-65
2022/05/29 01:25:19;;;;;;;11.00;2.80;;;11.20;99.90;;;;;;5113835;28;20411;-66
2022/05/29 01:28:06;;;;;;;11.00;2.47;;;11.20;99.90;;;;;;5113952;28;20761;-66
2022/05/29 01:30:38;;;;;;;10.93;2.80;;;11.30;99.90;;;;;;5113380;28;20323;-66
2022/05/29 01:33:16;;;;;;;10.97;2.87;;;11.30;99.90;;;;;;5113734;28;20281;-66
2022/05/29 01:35:53;;;;;;;13.70;3.07;;;11.30;99.90;;;;;;5113628;28;20356;-66
2022/05/29 01:38:39;;;;;;;14.77;3.50;;;11.30;99.90;;;;;;5113556;28;20274;-66
2022/05/29 01:41:21;;;;;;;16.37;3.43;;;11.30;99.90;;;;;;5112839;28;20278;-66
2022/05/29 01:44:08;;;;;;;16.47;3.23;;;11.30;99.90;;;;;;5113566;28;20284;-66
2022/05/29 01:46:35;;;;;;;12.23;2.60;;;11.30;99.90;;;;;;5095326;28;20278;-65
2022/05/29 01:49:13;;;;;;;13.53;2.87;;;11.40;99.90;;;;;;5113594;28;20277;-65
2022/05/29 01:52:00;;;;;;;14.60;2.90;;;11.40;99.90;;;;;;5113257;28;20278;-65
2022/05/29 01:54:52;;;;;;;15.23;3.10;;;11.40;99.90;;;;;;5113073;28;20285;-66
2022/05/29 01:57:22;;;;;;;12.10;3.33;;;11.40;99.90;;;;;;5113690;28;20360;-65
2022/05/29 01:59:55;;;;;;;13.53;2.83;;;11.40;99.90;;;;;;5113717;28;20274;-65
2022/05/29 02:02:28;;;;;;;10.37;2.83;;;11.40;99.90;;;;;;5095028;28;20318;-67
2022/05/29 02:04:56;;;;;;;13.80;2.70;;;11.40;99.90;;;;;;5113271;28;20269;-65
2022/05/29 02:10:48;;;;;;;16.93;3.93;;;11.40;99.90;;;;;;5113325;28;20354;-65
2022/05/29 02:13:41;;;;;;;14.70;3.30;;;11.40;99.90;;;;;;5030537;28;20288;-65
2022/05/29 02:16:16;;;;;;;12.87;2.93;;;11.40;99.90;;;;;;5113291;28;20274;-65
2022/05/29 02:18:53;;;;;;;16.17;3.00;;;11.30;99.90;;;;;;5112981;28;20270;-65
2022/05/29 02:21:43;;;;;;;11.97;3.20;;;11.30;99.90;;;;;;5113060;28;20052;-65
2022/05/29 02:24:16;;;;;;;14.07;3.30;;;11.40;99.90;;;;;;5113316;28;20274;-65
2022/05/29 02:26:59;;;;;;;14.40;3.20;;;11.40;99.90;;;;;;5094779;28;20273;-65
2022/05/29 02:29:24;;;;;;;11.50;3.20;;;11.40;99.90;;;;;;5112781;28;20289;-66
2022/05/29 02:32:17;;;;;;;15.90;3.10;;;11.40;99.90;;;;;;5113011;28;20287;-65
2022/05/29 02:35:01;;;;;;;18.10;2.90;;;11.40;99.90;;;;;;5113020;28;20051;-65
2022/05/29 02:37:40;;;;;;;14.60;4.07;;;11.40;99.90;;;;;;5112852;28;20278;-66
2022/05/29 02:40:24;;;;;;;13.27;3.07;;;11.50;99.90;;;;;;5112866;28;20769;-65
2022/05/29 02:43:21;;;;;;;15.03;3.17;;;11.40;99.90;;;;;;5113320;28;20286;-65
2022/05/29 02:46:26;;;;;;;15.40;3.27;;;11.40;99.90;;;;;;5111986;28;20296;-65
2022/05/29 02:49:18;;;;;;;9.90;2.93;;;11.50;99.90;;;;;;5113326;28;20666;-65
2022/05/29 02:51:51;;;;;;;10.63;2.90;;;11.50;99.90;;;;;;5114795;28;20324;-65
2022/05/29 02:54:28;;;;;;;12.83;2.90;;;11.50;99.90;;;;;;5116780;28;20756;-65
2022/05/29 02:56:56;;;;;;;12.63;3.00;;;11.40;99.90;;;;;;5116747;28;20269;-65
2022/05/29 02:59:46;;;;;;;9.30;3.07;;;11.50;99.90;;;;;;5098745;28;20309;-65
2022/05/29 03:02:37;;;;;;;11.20;2.10;;;11.50;99.90;;;;;;5116930;28;20269;-65
2022/05/29 03:05:28;;;;;;;8.57;2.10;;;11.50;99.90;;;;;;5116601;28;20339;-65
2022/05/29 03:08:48;;;;;;;10.07;2.10;;;11.40;99.90;;;;;;5116913;28;20285;-65
2022/05/29 03:11:32;;;;;;;9.47;2.70;;;11.40;99.90;;;;;;5033715;28;20288;-65
2022/05/29 03:14:32;;;;;;;8.07;2.53;;;11.30;99.90;;;;;;5033647;28;20296;-65
2022/05/29 03:17:14;;;;;;;8.27;2.20;;;11.30;99.90;;;;;;5111143;28;20296;-65
2022/05/29 03:20:08;;;;;;;10.87;2.90;;;11.20;99.90;;;;;;5097967;28;20314;-65
2022/05/29 03:22:52;;;;;;;13.20;2.80;;;11.20;99.90;;;;;;5116076;28;20296;-65
2022/05/29 03:25:39;;;;;;;11.30;2.30;;;11.20;99.90;;;;;;5116298;28;20360;-65
2022/05/29 03:28:15;;;;;;;14.30;2.93;;;11.20;99.90;;;;;;5098025;28;20289;-65
2022/05/29 03:30:45;;;;;;;11.37;2.80;;;11.20;99.90;;;;;;5115907;28;20289;-65
2022/05/29 03:33:13;;;;;;;10.57;3.00;;;11.20;99.90;;;;;;5116158;28;20305;-65
2022/05/29 03:36:07;;;;;;;11.07;2.60;;;11.30;99.90;;;;;;5115664;28;20288;-66
2022/05/29 03:38:33;;;;;;;14.93;3.13;;;11.30;99.90;;;;;;5112708;28;20307;-66
2022/05/29 03:40:59;;;;;;;15.47;2.70;;;11.20;99.90;;;;;;5098057;28;20286;-65
2022/05/29 03:43:25;;;;;;;15.70;2.87;;;11.20;99.90;;;;;;5115843;28;20372;-65
2022/05/29 03:45:51;;;;;;;12.40;3.17;;;11.30;99.90;;;;;;5115674;28;20338;-65
2022/05/29 03:48:17;;;;;;;14.47;3.40;;;11.30;99.90;;;;;;5097897;28;20131;-65
2022/05/29 03:50:42;;;;;;;12.97;2.77;;;11.40;99.90;;;;;;5097223;28;20040;-65
2022/05/29 03:53:08;;;;;;;15.10;3.07;;;11.40;99.90;;;;;;5115554;28;20047;-65
2022/05/29 03:55:34;;;;;;;11.20;2.30;;;11.40;99.90;;;;;;5115190;28;20130;-67
2022/05/29 03:57:59;;;;;;;16.47;2.90;;;11.40;99.90;;;;;;5115952;28;20048;-65
2022/05/29 04:00:26;;;;;;;13.97;2.93;;;11.40;99.90;;;;;;5115536;28;20043;-65
2022/05/29 04:02:52;;;;;;;16.63;2.67;;;11.40;99.90;;;;;;5096404;28;20380;-65
2022/05/29 04:05:21;;;;;;;12.47;2.73;;;11.40;99.90;;;;;;5115378;28;20273;-65
2022/05/29 04:13:18;;;;;;;18.83;3.03;;;11.40;99.90;;;;;;5115391;28;20120;-65
2022/05/29 04:15:47;;;;;;;14.17;3.40;;;11.50;99.90;;;;;;5115148;28;20278;-65
2022/05/29 04:18:15;;;;;;;13.00;2.67;;;11.40;99.90;;;;;;5115166;28;20072;-65
2022/05/29 04:20:42;;;;;;;11.07;2.30;;;11.40;99.90;;;;;;5114992;28;20666;-65
2022/05/29 04:23:08;;;;;;;12.97;2.67;;;11.50;99.90;;;;;;5115387;28;20295;-65
2022/05/29 04:25:33;;;;;;;9.43;2.40;;;11.50;99.90;;;;;;5115097;28;20309;-65
2022/05/29 04:28:01;;;;;;;16.30;2.87;;;11.50;99.90;;;;;;5114745;28;20336;-65
2022/05/29 04:30:27;;;;;;;12.33;2.20;;;11.50;99.90;;;;;;5115047;28;20040;-65
2022/05/29 04:32:59;;;;;;;9.80;2.30;;;11.50;99.90;;;;;;5114649;28;20301;-65
2022/05/29 04:35:25;;;;;;;11.20;2.27;;;11.50;99.90;;;;;;5115249;28;20656;-65
2022/05/29 04:37:51;;;;;;;10.07;2.00;;;11.50;99.90;;;;;;5114737;28;20312;-65
2022/05/29 04:40:17;;;;;;;10.50;2.03;;;11.50;99.90;;;;;;5114865;28;20280;-65
2022/05/29 04:42:43;;;;;;;10.47;2.50;;;11.50;99.90;;;;;;5114496;28;20075;-65
2022/05/29 04:45:09;;;;;;;10.13;2.60;;;11.50;99.90;;;;;;5114777;28;20054;-65
2022/05/29 04:47:35;;;;;;;7.60;1.70;;;11.50;99.90;;;;;;5114449;28;20047;-65
2022/05/29 04:50:00;;;;;;;11.63;2.10;;;11.50;99.90;;;;;;5096225;28;20312;-65
2022/05/29 04:52:26;;;;;;;13.63;2.53;;;11.40;99.90;;;;;;5096672;28;20044;-65
2022/05/29 04:54:52;;;;;;;8.00;2.10;;;11.40;99.90;;;;;;5114213;28;20047;-65
2022/05/29 04:57:18;;;;;;;15.43;2.77;;;11.50;99.90;;;;;;5114544;28;20054;-66
2022/05/29 04:59:44;;;;;;;13.20;2.20;;;11.50;99.90;;;;;;5114033;28;20036;-65
2022/05/29 05:02:10;;;;;;;13.47;3.17;;;11.50;99.90;;;;;;5114204;28;20765;-65
2022/05/29 05:04:36;;;;;;;16.50;3.17;;;11.50;99.90;;;;;;5114282;28;20402;-65
2022/05/29 05:07:03;;;;;;;12.13;2.93;;;11.50;99.90;;;;;;5114082;28;20281;-65
2022/05/29 05:09:29;;;;;;;12.00;2.87;;;11.60;99.90;;;;;;5114119;28;20438;-65
2022/05/29 05:11:56;;;;;;;15.07;2.43;;;11.60;99.90;;;;;;5113869;28;20270;-65
2022/05/29 05:14:24;;;;;;;17.07;3.17;;;11.60;99.90;;;;;;5114029;28;20718;-65
2022/05/29 05:16:49;;;;;;;12.93;2.60;;;11.60;99.90;;;;;;5113671;28;20301;-66
2022/05/29 05:19:16;;;;;;;13.77;3.07;;;11.70;99.90;;;;;;5114123;28;20761;-65
2022/05/29 05:21:43;;;;;;;15.90;2.90;;;11.70;99.90;;;;;;5113888;28;20059;-65
2022/05/29 05:24:08;;;;;;;15.80;2.97;;;11.80;99.90;;;;;;5114079;28;20273;-65
2022/05/29 05:26:35;;;;;;;11.73;2.40;;;11.90;99.90;;;;;;5112695;28;20273;-65
2022/05/29 05:29:01;;;;;;;16.23;2.73;;;11.90;99.90;;;;;;5113355;28;20490;-66
2022/05/29 05:31:27;;;;;;;15.40;2.80;;;12.00;99.90;;;;;;5114103;28;20292;-65
2022/05/29 05:33:53;;;;;;;10.00;2.80;;;11.90;99.90;;;;;;5113692;28;20621;-65
2022/05/29 05:36:19;;;;;;;17.77;2.80;;;11.90;99.90;;;;;;5114104;28;20096;-65
2022/05/29 05:38:46;;;;;;;12.77;3.17;;;11.90;99.90;;;;;;5113640;28;20273;-67
2022/05/29 05:41:13;;;;;;;12.90;2.97;;;12.00;99.90;;;;;;5113860;28;20272;-65
2022/05/29 05:43:40;;;;;;;13.07;3.00;;;11.90;99.90;;;;;;5095294;28;20281;-65
2022/05/29 05:46:07;;;;;;;15.17;2.93;;;11.90;99.90;;;;;;5113333;28;20302;-65
2022/05/29 05:48:33;;;;;;;17.27;2.80;;;11.90;99.90;;;;;;5113696;28;20274;-65
2022/05/29 05:50:59;;;;;;;10.23;2.40;;;11.80;99.90;;;;;;5113267;28;20293;-66
2022/05/29 05:53:26;;;;;;;8.87;2.50;;;11.80;99.90;;;;;;5113583;28;20633;-65
2022/05/29 05:55:52;;;;;;;15.07;3.20;;;11.70;99.90;;;;;;5113139;28;20092;-65
2022/05/29 05:58:17;;;;;;;13.87;3.73;;;11.60;99.90;;;;;;5113290;28;20274;-66
2022/05/29 06:00:45;;;;;;;13.10;3.73;;;11.60;99.90;;;;;;5095647;28;20385;-65
2022/05/29 06:03:10;;;;;;;14.67;3.40;;;11.60;99.90;;;;;;5112725;28;20096;-66
2022/05/29 06:05:36;;;;;;;11.87;2.70;;;11.60;99.90;;;;;;5113310;28;20273;-65
2022/05/29 06:08:02;;;;;;;15.93;3.50;;;11.50;99.90;;;;;;5113026;28;20048;-65
2022/05/29 06:10:27;;;;;;;16.30;3.10;;;11.60;99.90;;;;;;5095043;28;20043;-65
2022/05/29 06:12:53;;;;;;;11.93;2.80;;;11.60;99.90;;;;;;5112856;28;20051;-65
2022/05/29 06:15:19;;;;;;;14.47;3.10;;;11.60;99.90;;;;;;5113393;28;20483;-65
2022/05/29 06:17:45;;;;;;;12.73;2.73;;;11.60;99.90;;;;;;5113030;28;20484;-65
2022/05/29 06:20:12;;;;;;;11.00;2.33;;;11.60;99.90;;;;;;5112950;28;20055;-65
2022/05/29 06:22:39;;;;;;;14.07;3.13;;;11.60;99.90;;;;;;5113308;28;20289;-65
2022/05/29 06:25:07;;;;;;;15.93;3.10;;;11.60;99.90;;;;;;5112914;28;20640;-66
2022/05/29 06:27:41;;;;;;;13.90;2.83;;;11.60;99.90;;;;;;5116588;28;20286;-66
2022/05/29 06:30:09;;;;;;;13.88;2.63;;;11.70;99.90;;;;;;5116885;28;20644;-66
2022/05/29 06:32:36;;;;;;;16.23;2.93;;;11.80;99.90;;;;;;5117349;28;20087;-65
2022/05/29 06:35:02;;;;;;;11.87;2.80;;;11.80;99.90;;;;;;5116963;28;20364;-65
2022/05/29 06:37:29;;;;;;;12.83;2.40;;;11.80;99.90;;;;;;5117096;28;20629;-65
2022/05/29 06:39:55;;;;;;;15.17;3.10;;;11.90;99.90;;;;;;5116807;28;20272;-66
2022/05/29 06:42:21;;;;;;;12.67;3.00;;;12.00;99.90;;;;;;5116856;28;20372;-66
2022/05/29 06:44:47;;;;;;;12.30;2.37;;;12.00;99.90;;;;;;5117042;28;20377;-65
2022/05/29 06:47:15;;;;;;;10.37;2.40;;;12.20;99.90;;;;;;5116770;28;20047;-65
2022/05/29 06:49:41;;;;;;;15.90;2.67;;;12.30;99.90;;;;;;5116760;28;20607;-66
2022/05/29 06:52:10;;;;;;;10.70;3.03;;;12.30;99.90;;;;;;5116498;28;20280;-66
2022/05/29 06:54:37;;;;;;;14.00;3.03;;;12.30;99.90;;;;;;5116486;28;20273;-66
2022/05/29 06:57:05;;;;;;;16.00;2.23;;;12.40;99.90;;;;;;5115382;28;20364;-66
2022/05/29 06:59:31;;;;;;;13.97;2.60;;;13.40;99.90;;;;;;5116836;28;20274;-65
2022/05/29 07:07:25;;;;;;;11.30;2.60;;;16.00;99.90;;;;;;5116716;28;20341;-66
2022/05/29 07:09:51;;;;;;;15.57;2.80;;;15.50;99.90;;;;;;5116561;28;20388;-65
2022/05/29 07:12:22;;;;;;;13.13;2.83;;;15.20;99.90;;;;;;5116298;28;20535;-65
2022/05/29 07:14:56;;;;;;;13.43;2.37;;;14.80;99.90;;;;;;5116434;28;20079;-65
2022/05/29 07:17:22;;;;;;;13.55;2.53;;;14.40;99.90;;;;;;5116309;28;20292;-65
2022/05/29 07:19:49;;;;;;;10.90;2.10;;;14.10;99.90;;;;;;5098028;28;20052;-65
2022/05/29 07:22:15;;;;;;;10.47;2.70;;;13.90;99.90;;;;;;5115867;28;20047;-65
2022/05/29 07:24:42;;;;;;;15.07;2.60;;;13.80;99.90;;;;;;5116267;28;20296;-65
2022/05/29 07:27:08;;;;;;;13.43;3.03;;;13.70;99.90;;;;;;5115885;28;20368;-65
2022/05/29 07:29:34;;;;;;;13.10;3.00;;;13.70;99.90;;;;;;5116148;28;20381;-65
2022/05/29 07:32:00;;;;;;;10.73;2.50;;;13.60;99.90;;;;;;5115875;28;20044;-66
2022/05/29 07:34:27;;;;;;;10.30;2.33;;;13.50;99.90;;;;;;5116086;28;20372;-65
2022/05/29 07:36:55;;;;;;;10.80;2.53;;;13.40;99.90;;;;;;5097792;28;20052;-65
2022/05/29 07:39:21;;;;;;;10.43;2.10;;;13.30;99.90;;;;;;5114920;28;20281;-65
2022/05/29 07:44:52;;;;;;;11.40;2.40;;;12.90;99.90;;;;;;5032932;28;20284;-65
2022/05/29 07:47:19;;;;;;;11.53;2.80;;;12.70;99.90;;;;;;5032715;28;20295;-65
2022/05/29 07:49:44;;;;;;;11.17;2.53;;;12.60;99.90;;;;;;5055323;28;20308;-65
2022/05/29 07:52:10;;;;;;;10.50;2.17;;;12.50;99.90;;;;;;5115378;28;20622;-65
2022/05/29 07:54:36;;;;;;;10.90;2.00;;;12.50;99.90;;;;;;5115405;28;20164;-65
2022/05/29 07:57:03;;;;;;;12.40;2.00;;;12.50;99.90;;;;;;5115397;28;20047;-67
2022/05/29 07:59:29;;;;;;;8.30;2.30;;;12.40;99.90;;;;;;5115494;28;20878;-66
2022/05/29 08:01:55;;;;;;;9.77;1.90;;;12.40;99.90;;;;;;5115508;28;20364;-65
2022/05/29 08:04:21;;;;;;;11.43;1.90;;;12.40;99.90;;;;;;5115229;28;20418;-65
2022/05/29 08:06:47;;;;;;;9.57;1.97;;;12.40;99.90;;;;;;5097174;28;20534;-65
2022/05/29 08:09:12;;;;;;;9.77;2.13;;;12.40;99.90;;;;;;5114966;28;20402;-65
2022/05/29 08:11:38;;;;;;;10.13;2.03;;;12.50;99.90;;;;;;5115231;28;20047;-65
2022/05/29 08:14:04;;;;;;;10.47;1.60;;;12.60;99.90;;;;;;5115261;28;20093;-65
2022/05/29 08:16:30;;;;;;;8.83;2.17;;;12.80;99.90;;;;;;5115323;28;20047;-65
2022/05/29 08:18:56;;;;;;;9.47;1.60;;;12.80;99.90;;;;;;5115131;28;20659;-65
2022/05/29 08:21:22;;;;;;;8.73;1.80;;;12.80;99.90;;;;;;5114711;28;20055;-65
2022/05/29 08:32:02;;;;;;;6.27;1.40;;;12.80;99.90;;;;;;5073084;28;20803;-65
2022/05/29 08:34:28;;;;;;;7.03;1.50;;;12.70;99.90;;;;;;5079551;28;20277;-64
2022/05/29 08:36:55;;;;;;;8.60;1.80;;;12.60;99.90;;;;;;5114619;28;20045;-65
2022/05/29 08:39:22;;;;;;;7.10;1.83;;;12.50;99.90;;;;;;5114750;28;20054;-65
2022/05/29 08:41:51;;;;;;;9.40;1.87;;;12.40;99.90;;;;;;5114863;28;20362;-65
2022/05/29 08:44:37;;;;;;;8.10;1.40;;;12.30;99.90;;;;;;5096537;28;20390;-65
2022/05/29 08:47:04;;;;;;;9.37;1.63;;;12.40;99.90;;;;;;5114463;28;20289;-65
2022/05/29 08:49:39;;;;;;;7.47;1.73;;;12.40;99.90;;;;;;5113677;28;20316;-65
2022/05/29 08:52:12;;;;;;;7.27;1.63;;;12.40;99.90;;;;;;5096980;28;20285;-65
2022/05/29 08:54:47;;;;;;;6.10;1.30;;;12.60;99.90;;;;;;5114895;28;20313;-67
2022/05/29 08:57:48;;;;;;;10.48;1.80;;;12.80;99.90;;;;;;5114272;28;20269;-66
2022/05/29 09:00:19;;;;;;;8.70;1.53;;;12.90;99.90;;;;;;5096650;28;20047;-66
2022/05/29 09:02:57;;;;;;;8.13;2.00;;;12.80;99.90;;;;;;5096288;28;20285;-65
2022/05/29 09:05:35;;;;;;;10.17;2.13;;;12.90;99.90;;;;;;5105005;28;20323;-65
2022/05/29 09:08:11;;;;;;;8.53;1.60;;;12.80;99.90;;;;;;5113737;28;20630;-66
2022/05/29 09:10:52;;;;;;;10.20;2.03;;;12.80;99.90;;;;;;5107863;28;20343;-65
2022/05/29 09:13:40;;;;;;;7.53;1.63;;;12.80;99.90;;;;;;5113108;28;20270;-65
2022/05/29 09:16:16;;;;;;;8.13;2.30;;;12.80;99.90;;;;;;5108610;28;20313;-65
2022/05/29 09:19:02;;;;;;;9.07;1.67;;;12.70;99.90;;;;;;5113322;28;20282;-65
2022/05/29 09:21:45;;;;;;;9.63;2.50;;;12.80;99.90;;;;;;5087935;28;20692;-65
2022/05/29 09:24:21;;;;;;;18.50;3.50;;;12.90;99.90;;;;;;5103671;28;20088;-65
2022/05/29 09:26:47;;;;;;;9.40;2.07;;;13.00;99.90;;;;;;5108313;28;20309;-65
2022/05/29 09:29:12;;;;;;;9.43;2.37;;;13.10;99.90;;;;;;5111424;28;20320;-64
2022/05/29 09:31:39;;;;;;;9.93;2.53;;;13.20;99.90;;;;;;5107636;28;20608;-65
2022/05/29 09:34:05;;;;;;;9.13;1.90;;;13.30;99.90;;;;;;5113190;28;20052;-64
2022/05/29 09:37:01;;;;;;;10.40;2.20;;;13.30;99.90;;;;;;5108519;28;20317;-66
2022/05/29 09:39:44;;;;;;;10.65;2.28;;;13.30;99.90;;;;;;5110771;28;20277;-66
2022/05/29 09:42:40;;;;;;;7.90;1.57;;;13.30;99.90;;;;;;5108065;28;20128;-65
2022/05/29 09:45:22;;;;;;;6.60;1.47;;;13.40;99.90;;;;;;5076581;28;20645;-65
2022/05/29 09:50:53;;;;;;;13.30;1.98;;;13.30;99.90;;;;;;5110805;28;20795;-66
2022/05/29 09:53:23;;;;;;;10.63;1.77;;;13.50;99.90;;;;;;5088778;28;20119;-65
2022/05/29 09:56:01;;;;;;;8.43;2.00;;;13.40;99.90;;;;;;5095311;28;20293;-65
2022/05/29 09:58:50;;;;;;;10.60;2.17;;;13.40;99.90;;;;;;5095191;28;20633;-66
2022/05/29 10:01:36;;;;;;;10.27;1.70;;;13.50;99.90;;;;;;5111300;28;20274;-66
2022/05/29 10:04:11;;;;;;;8.57;1.43;;;13.60;99.90;;;;;;5112576;28;20311;-65
2022/05/29 10:06:42;;;;;;;7.50;1.63;;;13.70;99.90;;;;;;5112924;28;20661;-66
2022/05/29 10:09:30;;;;;;;11.33;2.80;;;13.90;99.90;;;;;;5111066;28;20177;-66
2022/05/29 10:12:15;;;;;;;10.63;1.93;;;13.90;99.90;;;;;;5113137;28;20667;-64
2022/05/29 10:14:43;;;;;;;13.35;1.85;;;14.00;99.90;;;;;;5112494;28;20651;-66
2022/05/29 10:17:33;;;;;;;7.13;1.93;;;14.00;99.90;;;;;;5112798;28;20043;-65
2022/05/29 10:19:59;;;;;;;8.20;1.80;;;14.00;99.90;;;;;;5092412;28;20666;-65
2022/05/29 10:22:36;;;;;;;7.93;1.80;;;14.00;99.90;;;;;;5112917;28;20325;-66
2022/05/29 10:25:16;;;;;;;7.83;1.60;;;14.10;99.90;;;;;;5094767;28;20077;-65
2022/05/29 10:27:46;;;;;;;7.90;1.73;;;14.10;99.90;;;;;;5112575;28;20317;-65
2022/05/29 10:30:36;;;;;;;5.80;1.20;;;14.10;99.90;;;;;;5110656;28;20350;-65
2022/05/29 10:33:07;;;;;;;8.13;1.70;;;14.20;99.90;;;;;;5113072;28;20765;-65
2022/05/29 10:35:35;;;;;;;7.43;1.70;;;14.20;99.90;;;;;;5112069;28;20357;-64
2022/05/29 10:38:26;;;;;;;8.03;1.67;;;14.30;98.60;;;;;;5094952;28;20342;-66
2022/05/29 10:40:55;;;;;;;7.30;1.40;;;14.30;99.30;;;;;;5078349;28;20296;-66
2022/05/29 10:43:37;;;;;;;12.37;1.80;;;14.30;99.90;;;;;;5112755;28;20303;-67
2022/05/29 10:46:11;;;;;;;13.90;2.07;;;14.30;99.90;;;;;;5112980;28;20281;-68
2022/05/29 10:49:07;;;;;;;9.60;2.27;;;14.20;99.90;;;;;;5112774;28;20353;-67
2022/05/29 10:52:07;;;;;;;10.33;2.03;;;14.00;99.90;;;;;;5112599;28;20313;-67
2022/05/29 10:54:58;;;;;;;9.30;1.90;;;13.80;99.90;;;;;;5112547;28;20286;-66
2022/05/29 10:57:43;;;;;;;8.57;1.90;;;13.60;99.90;;;;;;5112671;28;20293;-66
2022/05/29 11:00:41;;;;;;;7.25;1.75;;;13.50;99.90;;;;;;5113167;28;20273;-65
2022/05/29 11:03:22;;;;;;;10.67;2.43;;;13.50;99.90;;;;;;5113171;28;20048;-65
2022/05/29 11:06:08;;;;;;;11.40;2.00;;;13.40;99.90;;;;;;5112873;28;20285;-65
2022/05/29 11:08:52;;;;;;;12.40;1.70;;;13.40;99.90;;;;;;5112060;28;20281;-65
2022/05/29 11:11:26;;;;;;;7.40;1.50;;;13.50;99.90;;;;;;5094500;28;20298;-65
2022/05/29 11:13:55;;;;;;;10.75;1.58;;;13.60;99.90;;;;;;5116514;28;20323;-66
2022/05/29 11:16:54;;;;;;;7.57;1.83;;;13.70;99.90;;;;;;5116474;28;20052;-65
2022/05/29 11:19:52;;;;;;;14.87;2.60;;;13.90;99.90;;;;;;5116287;28;20293;-67
2022/05/29 11:22:53;;;;;;;9.23;1.90;;;14.10;99.90;;;;;;5115178;28;20301;-66
2022/05/29 11:25:35;;;;;;;9.20;1.73;;;14.20;99.90;;;;;;5036681;28;20298;-66
2022/05/29 11:28:15;;;;;;;15.93;2.87;;;14.40;99.90;;;;;;5110135;28;20322;-66
2022/05/29 11:31:12;;;;;;;12.03;2.07;;;14.60;99.90;;;;;;5115277;28;20350;-66
2022/05/29 11:34:21;;;;;;;8.33;1.60;;;14.60;97.80;;;;;;5113119;28;20281;-66
2022/05/29 11:36:56;;;;;;;11.03;2.37;;;14.50;99.60;;;;;;5099630;28;20297;-66
2022/05/29 11:39:25;;;;;;;6.15;1.67;;;14.30;99.90;;;;;;5116191;28;20313;-65
2022/05/29 11:42:06;;;;;;;9.57;2.60;;;14.40;99.90;;;;;;5115627;28;20091;-66
2022/05/29 11:44:47;;;;;;;10.10;2.00;;;14.40;99.90;;;;;;5115516;28;20296;-66
2022/05/29 11:53:49;;;;;;;12.23;2.77;;;14.20;99.90;;;;;;5115064;28;20626;-66
2022/05/29 11:56:36;;;;;;;7.87;2.47;;;14.10;99.90;;;;;;5115674;28;20683;-66
2022/05/29 11:59:24;;;;;;;8.37;2.40;;;14.00;99.90;;;;;;5115197;28;20281;-66
2022/05/29 12:02:09;;;;;;;9.87;2.77;;;14.00;99.90;;;;;;5096686;28;20770;-66
2022/05/29 12:04:47;;;;;;;8.88;2.30;;;14.00;99.90;;;;;;5115278;28;20261;-66
2022/05/29 12:07:53;;;;;;;8.87;2.07;;;14.20;99.90;;;;;;5115074;28;20146;-66
2022/05/29 12:10:24;;;;;;;11.00;2.20;;;14.20;99.90;;;;;;5063156;28;20846;-66
2022/05/29 12:13:10;;;;;;;10.67;2.30;;;14.10;99.90;;;;;;5096957;28;20927;-66
2022/05/29 12:15:36;;;;;;;11.63;2.10;;;14.10;99.90;;;;;;5114795;28;20316;-66
2022/05/29 12:18:22;;;;;;;12.03;2.40;;;14.10;99.90;;;;;;5114660;28;20317;-65
2022/05/29 12:20:55;;;;;;;11.80;3.03;;;14.20;99.90;;;;;;5114818;28;20315;-66
2022/05/29 12:23:24;;;;;;;9.63;2.30;;;14.30;99.90;;;;;;5114252;28;20051;-66
2022/05/29 12:26:08;;;;;;;8.40;2.07;;;14.20;99.90;;;;;;5114602;28;20283;-65
2022/05/29 12:28:55;;;;;;;11.47;1.90;;;14.10;99.90;;;;;;5114505;28;20274;-66
2022/05/29 12:31:30;;;;;;;9.23;1.90;;;13.80;99.90;;;;;;5114867;28;20293;-65
2022/05/29 12:33:56;;;;;;;7.17;1.60;;;13.80;99.90;;;;;;5114329;28;20278;-66
2022/05/29 12:36:43;;;;;;;9.97;2.27;;;13.80;99.90;;;;;;5114566;28;20366;-66
2022/05/29 12:39:08;;;;;;;7.23;1.87;;;13.70;99.90;;;;;;5114767;28;20289;-65
2022/05/29 12:41:55;;;;;;;8.23;2.00;;;13.60;99.90;;;;;;5114582;28;20277;-68
2022/05/29 12:44:50;;;;;;;8.30;1.50;;;13.70;99.90;;;;;;5114109;28;20047;-67
2022/05/29 12:47:37;;;;;;;7.72;1.85;;;13.90;99.10;;;;;;5083617;28;20289;-68
2022/05/29 12:50:33;;;;;;;12.77;1.97;;;14.00;98.80;;;;;;5114613;28;20043;-68
2022/05/29 12:53:26;;;;;;;8.60;1.63;;;14.10;99.00;;;;;;5114198;28;20327;-66
2022/05/29 12:56:27;;;;;;;11.63;2.27;;;14.40;99.60;;;;;;5114268;28;20832;-66
2022/05/29 12:59:12;;;;;;;9.80;2.10;;;14.40;99.10;;;;;;5051448;28;20349;-66
2022/05/29 13:01:49;;;;;;;11.73;2.20;;;14.60;99.90;;;;;;5092303;28;20297;-67
2022/05/29 13:04:33;;;;;;;8.03;1.70;;;14.60;96.80;;;;;;5114388;28;20043;-66
2022/05/29 13:07:12;;;;;;;7.00;1.53;;;14.70;97.20;;;;;;5114196;28;20326;-66
2022/05/29 13:09:50;;;;;;;10.93;1.67;;;14.70;96.40;;;;;;5113938;28;20332;-64
2022/05/29 13:12:21;;;;;;;10.70;2.07;;;14.80;95.20;;;;;;5114084;28;20285;-64
2022/05/29 13:14:51;;;;;;;9.67;1.70;;;14.80;94.60;;;;;;5095772;28;20285;-64
2022/05/29 13:17:24;;;;;;;10.27;1.90;;;14.70;95.00;;;;;;5114176;28;20277;-66
2022/05/29 13:20:17;;;;;;;8.07;1.83;;;14.60;94.40;;;;;;5078756;28;20785;-66
2022/05/29 13:23:03;;;;;;;8.83;1.80;;;14.50;94.30;;;;;;5113701;28;20289;-66
2022/05/29 13:25:38;;;;;;;9.43;1.77;;;14.40;94.10;;;;;;5114045;28;20285;-65
2022/05/29 13:28:41;;;;;;;8.02;1.90;;;14.40;96.10;;;;;;5095730;28;20377;-66
2022/05/29 13:31:16;;;;;;;12.83;2.70;;;14.40;98.50;;;;;;5113965;28;20047;-66
2022/05/29 13:33:51;;;;;;;9.73;2.50;;;14.30;98.50;;;;;;5113778;28;20283;-66
2022/05/29 13:36:46;;;;;;;10.43;2.65;;;14.30;99.90;;;;;;5113130;28;20096;-66
2022/05/29 13:39:24;;;;;;;11.45;2.88;;;14.30;99.90;;;;;;5113696;28;20099;-66
2022/05/29 13:41:52;;;;;;;13.43;3.00;;;13.90;99.90;;;;;;5113591;28;20055;-66
2022/05/29 13:44:36;;;;;;;11.10;2.77;;;13.80;99.90;;;;;;5113796;28;20284;-66
2022/05/29 13:47:23;;;;;;;12.30;2.17;;;13.80;99.90;;;;;;5113368;28;20301;-66
2022/05/29 13:50:01;;;;;;;13.63;2.73;;;13.80;99.90;;;;;;5094900;28;20687;-66
2022/05/29 13:52:44;;;;;;;11.13;2.23;;;13.80;99.90;;;;;;5113695;28;20316;-66
2022/05/29 13:55:17;;;;;;;15.47;2.43;;;13.90;99.90;;;;;;5113664;28;20273;-66